createdAt,value
2023-12-16T00:01:14.496Z,102248.00
2023-12-16T00:03:43.433Z,102221.00
2023-12-16T00:06:12.356Z,102232.00
2023-12-16T00:08:41.168Z,102218.00
2023-12-16T00:11:10.963Z,102226.00
2023-12-16T00:13:39.976Z,102229.00
2023-12-16T00:16:09.277Z,102238.00
2023-12-16T00:18:40.483Z,102244.00
2023-12-16T00:21:10.544Z,102245.00
2023-12-16T00:23:39.296Z,102240.00
2023-12-16T00:26:08.175Z,102234.00
2023-12-16T00:28:37.010Z,102237.00
2023-12-16T00:31:05.947Z,102253.00
2023-12-16T00:33:34.728Z,102245.00
2023-12-16T00:36:05.154Z,102248.00
2023-12-16T00:38:33.901Z,102259.00
2023-12-16T00:41:02.661Z,102260.00
2023-12-16T00:43:31.459Z,102262.00
2023-12-16T00:46:00.452Z,102235.00
2023-12-16T00:48:29.291Z,102239.00
2023-12-16T00:50:58.111Z,102250.00
2023-12-16T00:53:28.256Z,102261.00
2023-12-16T00:55:56.976Z,102261.00
2023-12-16T00:58:25.833Z,102258.00
2023-12-16T01:00:54.767Z,102262.00
2023-12-16T01:03:23.643Z,102254.00
2023-12-16T01:05:52.415Z,102257.00
2023-12-16T01:08:21.191Z,102259.00
2023-12-16T01:10:51.330Z,102263.00
2023-12-16T01:13:20.133Z,102259.00
2023-12-16T01:15:49.092Z,102263.00
2023-12-16T01:18:18.040Z,102262.00
2023-12-16T01:20:46.916Z,102268.00
2023-12-16T01:23:15.624Z,102264.00
2023-12-16T01:25:44.361Z,102257.00
2023-12-16T01:28:14.872Z,102265.00
2023-12-16T01:30:43.931Z,102262.00
2023-12-16T01:33:14.230Z,102267.00
2023-12-16T01:35:43.146Z,102262.00
2023-12-16T01:38:12.444Z,102275.00
2023-12-16T01:40:41.236Z,102271.00
2023-12-16T01:43:12.000Z,102261.00
2023-12-16T01:45:42.232Z,102252.00
2023-12-16T01:48:13.020Z,102274.00
2023-12-16T01:50:41.970Z,102264.00
2023-12-16T01:53:11.421Z,102265.00
2023-12-16T01:55:40.168Z,102263.00
2023-12-16T01:58:09.363Z,102270.00
2023-12-16T02:00:39.530Z,102264.00
2023-12-16T02:03:09.712Z,102270.00
2023-12-16T02:05:38.525Z,102274.00
2023-12-16T02:08:07.604Z,102270.00
2023-12-16T02:10:36.803Z,102268.00
2023-12-16T02:13:05.745Z,102257.00
2023-12-16T02:15:34.720Z,102254.00
2023-12-16T02:18:03.521Z,102258.00
2023-12-16T02:20:33.676Z,102257.00
2023-12-16T02:23:04.232Z,102259.00
2023-12-16T02:25:34.473Z,102255.00
2023-12-16T02:28:03.224Z,102273.00
2023-12-16T02:30:32.834Z,102278.00
2023-12-16T02:33:01.720Z,102275.00
2023-12-16T02:35:30.489Z,102275.00
2023-12-16T02:37:59.233Z,102288.00
2023-12-16T02:40:28.038Z,102282.00
2023-12-16T02:42:58.726Z,102278.00
2023-12-16T02:45:28.031Z,102279.00
2023-12-16T02:47:56.783Z,102272.00
2023-12-16T02:50:25.557Z,102271.00
2023-12-16T02:52:54.319Z,102276.00
2023-12-16T02:55:23.146Z,102280.00
2023-12-16T02:57:51.923Z,102282.00
2023-12-16T03:00:22.226Z,102286.00
2023-12-16T03:02:51.065Z,102293.00
2023-12-16T03:05:19.946Z,102295.00
2023-12-16T03:07:48.661Z,102299.00
2023-12-16T03:10:17.503Z,102303.00
2023-12-16T03:12:47.834Z,102311.00
2023-12-16T03:15:16.793Z,102300.00
2023-12-16T03:17:47.235Z,102302.00
2023-12-16T03:20:16.233Z,102310.00
2023-12-16T03:22:44.969Z,102319.00
2023-12-16T03:25:13.791Z,102326.00
2023-12-16T03:27:42.563Z,102332.00
2023-12-16T03:30:11.996Z,102324.00
2023-12-16T03:32:40.943Z,102324.00
2023-12-16T03:35:11.580Z,102300.00
2023-12-16T03:37:40.592Z,102313.00
2023-12-16T03:40:10.746Z,102304.00
2023-12-16T03:42:39.585Z,102296.00
2023-12-16T03:45:09.168Z,102304.00
2023-12-16T03:47:38.764Z,102312.00
2023-12-16T03:50:08.286Z,102306.00
2023-12-16T03:52:38.568Z,102308.00
2023-12-16T03:55:08.500Z,102298.00
2023-12-16T03:57:37.454Z,102297.00
2023-12-16T04:00:09.571Z,102303.00
2023-12-16T04:02:38.544Z,102304.00
2023-12-16T04:05:08.654Z,102309.00
2023-12-16T04:07:39.011Z,102300.00
2023-12-16T04:10:10.921Z,102303.00
2023-12-16T04:12:39.671Z,102311.00
2023-12-16T04:15:09.804Z,102303.00
2023-12-16T04:17:38.892Z,102309.00
2023-12-16T04:20:09.003Z,102318.00
2023-12-16T04:22:39.164Z,102311.00
2023-12-16T04:25:12.190Z,102325.00
2023-12-16T04:27:42.686Z,102331.00
2023-12-16T04:30:12.274Z,102324.00
2023-12-16T04:32:41.186Z,102321.00
2023-12-16T04:35:10.420Z,102340.00
2023-12-16T04:37:41.675Z,102338.00
2023-12-16T04:40:11.847Z,102349.00
2023-12-16T04:42:43.593Z,102344.00
2023-12-16T04:45:12.802Z,102350.00
2023-12-16T04:47:41.907Z,102352.00
2023-12-16T04:50:11.655Z,102348.00
2023-12-16T04:52:41.918Z,102350.00
2023-12-16T04:55:11.300Z,102361.00
2023-12-16T04:57:40.310Z,102356.00
2023-12-16T05:00:10.308Z,102357.00
2023-12-16T05:02:39.090Z,102350.00
2023-12-16T05:05:08.408Z,102350.00
2023-12-16T05:07:37.571Z,102349.00
2023-12-16T05:10:11.915Z,102349.00
2023-12-16T05:12:42.690Z,102357.00
2023-12-16T05:15:12.369Z,102361.00
2023-12-16T05:17:41.302Z,102360.00
2023-12-16T05:20:11.068Z,102364.00
2023-12-16T05:22:39.883Z,102361.00
2023-12-16T05:25:10.519Z,102364.00
2023-12-16T05:27:39.441Z,102354.00
2023-12-16T05:30:10.753Z,102366.00
2023-12-16T05:32:40.073Z,102365.00
2023-12-16T05:35:09.954Z,102357.00
2023-12-16T05:37:39.144Z,102361.00
2023-12-16T05:40:10.600Z,102355.00
2023-12-16T05:42:39.316Z,102349.00
2023-12-16T05:45:08.860Z,102343.00
2023-12-16T05:47:38.258Z,102346.00
2023-12-16T05:50:09.809Z,102347.00
2023-12-16T05:52:39.159Z,102339.00
2023-12-16T05:55:10.308Z,102351.00
2023-12-16T05:57:39.601Z,102345.00
2023-12-16T06:00:10.170Z,102348.00
2023-12-16T06:02:38.998Z,102350.00
2023-12-16T06:05:09.082Z,102344.00
2023-12-16T06:07:38.154Z,102335.00
2023-12-16T06:10:09.739Z,102341.00
2023-12-16T06:12:38.555Z,102327.00
2023-12-16T06:15:08.577Z,102337.00
2023-12-16T06:17:37.926Z,102339.00
2023-12-16T06:20:08.173Z,102344.00
2023-12-16T06:22:37.108Z,102343.00
2023-12-16T06:25:06.603Z,102358.00
2023-12-16T06:27:36.994Z,102368.00
2023-12-16T06:30:06.612Z,102361.00
2023-12-16T06:32:35.424Z,102371.00
2023-12-16T06:35:04.256Z,102372.00
2023-12-16T06:37:33.053Z,102375.00
2023-12-16T06:40:03.821Z,102382.00
2023-12-16T06:42:33.065Z,102387.00
2023-12-16T06:45:03.257Z,102395.00
2023-12-16T06:47:31.961Z,102391.00
2023-12-16T06:50:00.779Z,102397.00
2023-12-16T06:52:29.523Z,102402.00
2023-12-16T06:54:58.448Z,102410.00
2023-12-16T06:57:27.184Z,102406.00
2023-12-16T06:59:56.047Z,102413.00
2023-12-16T07:02:27.174Z,102407.00
2023-12-16T07:04:55.893Z,102410.00
2023-12-16T07:07:24.724Z,102416.00
2023-12-16T07:09:53.593Z,102420.00
2023-12-16T07:12:22.422Z,102426.00
2023-12-16T07:14:51.125Z,102416.00
2023-12-16T07:17:20.190Z,102419.00
2023-12-16T07:19:50.945Z,102430.00
2023-12-16T07:22:19.895Z,102440.00
2023-12-16T07:24:48.658Z,102441.00
2023-12-16T07:27:17.617Z,102460.00
2023-12-16T07:29:46.354Z,102457.00
2023-12-16T07:32:15.109Z,102459.00
2023-12-16T07:34:44.163Z,102459.00
2023-12-16T07:37:14.391Z,102466.00
2023-12-16T07:39:43.240Z,102460.00
2023-12-16T07:42:12.520Z,102464.00
2023-12-16T07:44:41.342Z,102457.00
2023-12-16T07:47:10.094Z,102447.00
2023-12-16T07:49:39.099Z,102433.00
2023-12-16T07:52:08.117Z,102414.00
2023-12-16T07:54:38.296Z,102414.00
2023-12-16T07:57:07.142Z,102408.00
2023-12-16T07:59:36.261Z,102412.00
2023-12-16T08:02:09.304Z,102423.00
2023-12-16T08:04:38.520Z,102438.00
2023-12-16T08:07:07.458Z,102447.00
2023-12-16T08:09:37.650Z,102452.00
2023-12-16T08:12:07.098Z,102470.00
2023-12-16T08:14:35.916Z,102471.00
2023-12-16T08:17:04.859Z,102472.00
2023-12-16T08:19:33.697Z,102461.00
2023-12-16T08:22:02.535Z,102462.00
2023-12-16T08:24:32.713Z,102463.00
2023-12-16T08:27:02.915Z,102465.00
2023-12-16T08:29:31.635Z,102469.00
2023-12-16T08:32:00.333Z,102482.00
2023-12-16T08:34:29.151Z,102488.00
2023-12-16T08:36:58.032Z,102480.00
2023-12-16T08:39:26.776Z,102475.00
2023-12-16T08:41:55.416Z,102488.00
2023-12-16T08:44:25.477Z,102483.00
2023-12-16T08:46:54.376Z,102494.00
2023-12-16T08:49:23.252Z,102489.00
2023-12-16T08:51:53.751Z,102489.00
2023-12-16T08:54:22.457Z,102493.00
2023-12-16T08:56:51.206Z,102493.00
2023-12-16T08:59:22.594Z,102491.00
2023-12-16T09:01:53.075Z,102495.00
2023-12-16T09:04:21.860Z,102484.00
2023-12-16T09:06:50.687Z,102485.00
2023-12-16T09:09:19.374Z,102487.00
2023-12-16T09:11:48.142Z,102498.00
2023-12-16T09:14:17.070Z,102499.00
2023-12-16T09:16:45.819Z,102490.00
2023-12-16T09:19:16.390Z,102500.00
2023-12-16T09:21:45.296Z,102508.00
2023-12-16T09:24:13.962Z,102489.00
2023-12-16T09:26:42.713Z,102496.00
2023-12-16T09:29:11.774Z,102488.00
2023-12-16T09:31:40.614Z,102496.00
2023-12-16T09:34:09.686Z,102498.00
2023-12-16T09:36:39.812Z,102498.00
2023-12-16T09:39:11.224Z,102498.00
2023-12-16T09:41:45.464Z,102496.00
2023-12-16T09:44:20.017Z,102497.00
2023-12-16T09:46:49.649Z,102498.00
2023-12-16T09:49:18.950Z,102495.00
2023-12-16T09:51:49.163Z,102487.00
2023-12-16T09:54:17.952Z,102481.00
2023-12-16T09:56:48.370Z,102477.00
2023-12-16T09:59:18.507Z,102468.00
2023-12-16T10:01:54.828Z,102472.00
2023-12-16T10:04:24.848Z,102461.00
2023-12-16T10:06:55.146Z,102451.00
2023-12-16T10:09:23.854Z,102455.00
2023-12-16T10:11:57.627Z,102452.00
2023-12-16T10:14:26.571Z,102434.00
2023-12-16T10:17:04.683Z,102445.00
2023-12-16T10:19:33.584Z,102444.00
2023-12-16T10:22:03.818Z,102448.00
2023-12-16T10:24:32.722Z,102452.00
2023-12-16T10:27:03.824Z,102465.00
2023-12-16T10:29:34.880Z,102460.00
2023-12-16T10:32:03.892Z,102457.00
2023-12-16T10:34:33.079Z,102449.00
2023-12-16T10:37:10.137Z,102442.00
2023-12-16T10:39:39.120Z,102435.00
2023-12-16T10:42:07.940Z,102437.00
2023-12-16T10:44:36.673Z,102438.00
2023-12-16T10:47:08.854Z,102439.00
2023-12-16T10:49:43.679Z,102433.00
2023-12-16T10:52:15.392Z,102426.00
2023-12-16T10:54:46.274Z,102437.00
2023-12-16T10:57:22.249Z,102433.00
2023-12-16T11:00:00.408Z,102431.00
2023-12-16T11:02:31.487Z,102426.00
2023-12-16T11:05:07.733Z,102431.00
2023-12-16T11:07:41.136Z,102420.00
2023-12-16T11:10:10.981Z,102408.00
2023-12-16T11:12:41.377Z,102401.00
2023-12-16T11:15:11.937Z,102399.00
2023-12-16T11:17:48.891Z,102390.00
2023-12-16T11:20:22.326Z,102385.00
2023-12-16T11:22:54.429Z,102383.00
2023-12-16T11:25:24.136Z,102390.00
2023-12-16T11:27:54.163Z,102370.00
2023-12-16T11:30:24.330Z,102362.00
2023-12-16T11:32:57.362Z,102362.00
2023-12-16T11:35:48.459Z,102360.00
2023-12-16T11:38:42.918Z,102364.00
2023-12-16T11:41:13.460Z,102365.00
2023-12-16T11:43:53.118Z,102352.00
2023-12-16T11:46:40.807Z,102344.00
2023-12-16T11:49:12.269Z,102352.00
2023-12-16T11:51:42.776Z,102343.00
2023-12-16T11:54:13.905Z,102340.00
2023-12-16T11:56:42.979Z,102333.00
2023-12-16T11:59:11.750Z,102335.00
2023-12-16T12:01:40.930Z,102333.00
2023-12-16T12:04:10.182Z,102335.00
2023-12-16T12:06:39.241Z,102323.00
2023-12-16T12:09:08.058Z,102332.00
2023-12-16T12:11:38.708Z,102326.00
2023-12-16T12:14:07.467Z,102334.00
2023-12-16T12:16:36.410Z,102318.00
2023-12-16T12:19:05.381Z,102314.00
2023-12-16T12:21:37.372Z,102313.00
2023-12-16T12:24:06.813Z,102310.00
2023-12-16T12:26:37.036Z,102306.00
2023-12-16T12:29:06.331Z,102312.00
2023-12-16T12:31:45.112Z,102312.00
2023-12-16T12:34:19.965Z,102308.00
2023-12-16T12:36:49.539Z,102301.00
2023-12-16T12:39:19.234Z,102302.00
2023-12-16T12:42:02.859Z,102298.00
2023-12-16T12:44:32.153Z,102310.00
2023-12-16T12:47:01.317Z,102312.00
2023-12-16T12:49:33.420Z,102303.00
2023-12-16T12:52:02.922Z,102294.00
2023-12-16T12:54:45.255Z,102296.00
2023-12-16T12:57:21.979Z,102295.00
2023-12-16T13:00:00.473Z,102298.00
2023-12-16T13:02:32.963Z,102310.00
2023-12-16T13:05:02.004Z,102297.00
2023-12-16T13:07:31.101Z,102302.00
2023-12-16T13:09:59.973Z,102295.00
2023-12-16T13:12:30.104Z,102284.00
2023-12-16T13:14:58.897Z,102274.00
2023-12-16T13:17:27.721Z,102284.00
2023-12-16T13:19:56.558Z,102271.00
2023-12-16T13:22:26.069Z,102271.00
2023-12-16T13:24:54.764Z,102273.00
2023-12-16T13:27:24.245Z,102275.00
2023-12-16T13:29:54.491Z,102268.00
2023-12-16T13:32:23.316Z,102258.00
2023-12-16T13:34:52.065Z,102252.00
2023-12-16T13:37:20.911Z,102268.00
2023-12-16T13:39:49.728Z,102256.00
2023-12-16T13:42:20.359Z,102250.00
2023-12-16T13:44:49.285Z,102253.00
2023-12-16T13:47:19.843Z,102259.00
2023-12-16T13:49:48.720Z,102236.00
2023-12-16T13:52:17.486Z,102237.00
2023-12-16T13:54:47.959Z,102231.00
2023-12-16T13:57:17.602Z,102229.00
2023-12-16T13:59:46.382Z,102223.00
2023-12-16T14:02:15.559Z,102228.00
2023-12-16T14:04:45.888Z,102229.00
2023-12-16T14:07:14.839Z,102221.00
2023-12-16T14:09:43.626Z,102222.00
2023-12-16T14:12:12.492Z,102229.00
2023-12-16T14:14:41.216Z,102225.00
2023-12-16T14:17:09.979Z,102222.00
2023-12-16T14:19:38.739Z,102221.00
2023-12-16T14:22:09.062Z,102222.00
2023-12-16T14:24:37.788Z,102227.00
2023-12-16T14:27:06.786Z,102225.00
2023-12-16T14:29:35.578Z,102226.00
2023-12-16T14:32:04.480Z,102221.00
2023-12-16T14:34:34.972Z,102217.00
2023-12-16T14:37:03.863Z,102220.00
2023-12-16T14:39:34.875Z,102218.00
2023-12-16T14:42:03.720Z,102222.00
2023-12-16T14:44:32.510Z,102217.00
2023-12-16T14:47:01.273Z,102209.00
2023-12-16T14:49:30.147Z,102209.00
2023-12-16T14:51:58.962Z,102207.00
2023-12-16T14:54:27.961Z,102206.00
2023-12-16T14:56:58.186Z,102207.00
2023-12-16T14:59:31.404Z,102204.00
2023-12-16T15:02:00.381Z,102214.00
2023-12-16T15:04:29.114Z,102213.00
2023-12-16T15:07:01.777Z,102207.00
2023-12-16T15:09:33.325Z,102211.00
2023-12-16T15:12:03.535Z,102210.00
2023-12-16T15:14:32.338Z,102223.00
2023-12-16T15:17:01.175Z,102215.00
2023-12-16T15:19:33.299Z,102229.00
2023-12-16T15:22:01.314Z,102225.00
2023-12-16T15:24:30.066Z,102222.00
2023-12-16T15:26:58.898Z,102220.00
2023-12-16T15:29:29.131Z,102217.00
2023-12-16T15:31:57.892Z,102223.00
2023-12-16T15:34:28.403Z,102215.00
2023-12-16T15:37:08.526Z,102219.00
2023-12-16T15:39:43.337Z,102218.00
2023-12-16T15:42:12.277Z,102224.00
2023-12-16T15:44:43.151Z,102210.00
2023-12-16T15:47:12.082Z,102207.00
2023-12-16T15:49:41.184Z,102209.00
2023-12-16T15:52:10.021Z,102201.00
2023-12-16T15:54:38.714Z,102196.00
2023-12-16T15:57:09.582Z,102201.00
2023-12-16T15:59:38.374Z,102199.00
2023-12-16T16:02:09.273Z,102194.00
2023-12-16T16:04:38.062Z,102200.00
2023-12-16T16:07:07.017Z,102192.00
2023-12-16T16:09:35.733Z,102191.00
2023-12-16T16:12:04.737Z,102199.00
2023-12-16T16:14:33.481Z,102197.00
2023-12-16T16:17:02.981Z,102201.00
2023-12-16T16:19:33.194Z,102194.00
2023-12-16T16:22:02.027Z,102183.00
2023-12-16T16:24:31.329Z,102180.00
2023-12-16T16:27:01.258Z,102191.00
2023-12-16T16:29:30.174Z,102190.00
2023-12-16T16:31:58.895Z,102179.00
2023-12-16T16:34:28.594Z,102193.00
2023-12-16T16:36:58.828Z,102183.00
2023-12-16T16:39:28.452Z,102185.00
2023-12-16T16:41:57.273Z,102174.00
2023-12-16T16:44:26.067Z,102179.00
2023-12-16T16:46:54.781Z,102192.00
2023-12-16T16:49:23.615Z,102200.00
2023-12-16T16:51:52.407Z,102202.00
2023-12-16T16:54:22.561Z,102202.00
2023-12-16T16:56:51.317Z,102203.00
2023-12-16T16:59:20.658Z,102206.00
2023-12-16T17:01:49.407Z,102207.00
2023-12-16T17:04:18.209Z,102210.00
2023-12-16T17:06:46.946Z,102215.00
2023-12-16T17:09:15.781Z,102212.00
2023-12-16T17:11:46.013Z,102216.00
2023-12-16T17:14:14.842Z,102206.00
2023-12-16T17:16:43.978Z,102210.00
2023-12-16T17:19:14.218Z,102211.00
2023-12-16T17:21:44.115Z,102212.00
2023-12-16T17:24:13.913Z,102208.00
2023-12-16T17:26:45.035Z,102214.00
2023-12-16T17:29:14.119Z,102207.00
2023-12-16T17:31:43.915Z,102215.00
2023-12-16T17:34:12.806Z,102210.00
2023-12-16T17:36:41.582Z,102209.00
2023-12-16T17:39:10.437Z,102200.00
2023-12-16T17:41:39.405Z,102214.00
2023-12-16T17:44:09.623Z,102217.00
2023-12-16T17:46:38.688Z,102211.00
2023-12-16T17:49:07.733Z,102218.00
2023-12-16T17:51:36.535Z,102221.00
2023-12-16T17:54:05.433Z,102222.00
2023-12-16T17:56:34.273Z,102225.00
2023-12-16T17:59:03.338Z,102222.00
2023-12-16T18:01:33.545Z,102228.00
2023-12-16T18:04:02.896Z,102223.00
2023-12-16T18:06:31.716Z,102220.00
2023-12-16T18:09:00.692Z,102218.00
2023-12-16T18:11:29.519Z,102221.00
2023-12-16T18:13:58.256Z,102220.00
2023-12-16T18:16:27.188Z,102209.00
2023-12-16T18:18:57.481Z,102214.00
2023-12-16T18:21:26.267Z,102211.00
2023-12-16T18:23:55.024Z,102210.00
2023-12-16T18:26:23.811Z,102221.00
2023-12-16T18:28:52.527Z,102227.00
2023-12-16T18:31:21.372Z,102217.00
2023-12-16T18:33:50.354Z,102225.00
2023-12-16T18:36:20.615Z,102226.00
2023-12-16T18:38:50.160Z,102236.00
2023-12-16T18:41:19.658Z,102240.00
2023-12-16T18:43:48.834Z,102244.00
2023-12-16T18:46:17.631Z,102218.00
2023-12-16T18:48:46.556Z,102214.00
2023-12-16T18:51:15.414Z,102216.00
2023-12-16T18:53:45.906Z,102199.00
2023-12-16T18:56:14.678Z,102205.00
2023-12-16T18:58:43.523Z,102210.00
2023-12-16T19:01:13.990Z,102206.00
2023-12-16T19:03:42.896Z,102202.00
2023-12-16T19:06:12.078Z,102198.00
2023-12-16T19:08:45.067Z,102202.00
2023-12-16T19:11:13.918Z,102216.00
2023-12-16T19:13:42.753Z,102208.00
2023-12-16T19:16:11.828Z,102222.00
2023-12-16T19:18:40.988Z,102225.00
2023-12-16T19:21:10.060Z,102219.00
2023-12-16T19:23:38.880Z,102222.00
2023-12-16T19:26:09.083Z,102226.00
2023-12-16T19:28:37.826Z,102226.00
2023-12-16T19:31:07.653Z,102224.00
2023-12-16T19:33:39.158Z,102225.00
2023-12-16T19:36:10.216Z,102219.00
2023-12-16T19:38:39.093Z,102219.00
2023-12-16T19:41:09.617Z,102222.00
2023-12-16T19:43:38.399Z,102217.00
2023-12-16T19:46:08.799Z,102231.00
2023-12-16T19:48:37.952Z,102236.00
2023-12-16T19:51:07.259Z,102240.00
2023-12-16T19:53:35.990Z,102253.00
2023-12-16T19:56:04.865Z,102249.00
2023-12-16T19:58:34.967Z,102250.00
2023-12-16T20:01:04.098Z,102245.00
2023-12-16T20:03:33.318Z,102255.00
2023-12-16T20:06:02.295Z,102259.00
2023-12-16T20:08:31.484Z,102259.00
2023-12-16T20:11:00.222Z,102263.00
2023-12-16T20:13:29.026Z,102255.00
2023-12-16T20:15:59.165Z,102261.00
2023-12-16T20:18:28.104Z,102248.00
2023-12-16T20:20:56.968Z,102258.00
2023-12-16T20:23:25.871Z,102266.00
2023-12-16T20:25:54.636Z,102251.00
2023-12-16T20:28:23.386Z,102250.00
2023-12-16T20:30:52.389Z,102250.00
2023-12-16T20:33:22.724Z,102244.00
2023-12-16T20:35:51.589Z,102230.00
2023-12-16T20:38:37.597Z,102233.00
2023-12-16T20:41:08.020Z,102222.00
2023-12-16T20:43:37.785Z,102213.00
2023-12-16T20:46:06.850Z,102200.00
2023-12-16T20:48:39.929Z,102190.00
2023-12-16T20:51:11.113Z,102190.00
2023-12-16T20:53:42.913Z,102200.00
2023-12-16T20:56:12.133Z,102203.00
2023-12-16T20:58:40.951Z,102217.00
2023-12-16T21:01:09.770Z,102221.00
2023-12-16T21:03:40.139Z,102231.00
2023-12-16T21:06:09.281Z,102223.00
2023-12-16T21:08:38.103Z,102235.00
2023-12-16T21:11:07.170Z,102223.00
2023-12-16T21:13:36.691Z,102215.00
2023-12-16T21:16:05.959Z,102215.00
2023-12-16T21:18:36.756Z,102208.00
2023-12-16T21:21:08.014Z,102211.00
2023-12-16T21:23:36.818Z,102216.00
2023-12-16T21:26:05.953Z,102209.00
2023-12-16T21:28:34.704Z,102205.00
2023-12-16T21:31:03.428Z,102213.00
2023-12-16T21:33:32.221Z,102213.00
2023-12-16T21:36:01.073Z,102219.00
2023-12-16T21:38:31.288Z,102231.00
2023-12-16T21:41:00.048Z,102240.00
2023-12-16T21:43:29.131Z,102230.00
2023-12-16T21:45:57.870Z,102238.00
2023-12-16T21:48:26.985Z,102232.00
2023-12-16T21:50:55.894Z,102244.00
2023-12-16T21:53:24.654Z,102246.00
2023-12-16T21:55:54.766Z,102235.00
2023-12-16T21:58:23.460Z,102228.00
2023-12-16T22:00:52.231Z,102227.00
2023-12-16T22:03:21.134Z,102230.00
2023-12-16T22:05:49.935Z,102232.00
2023-12-16T22:08:18.708Z,102228.00
2023-12-16T22:10:47.447Z,102231.00
2023-12-16T22:13:17.536Z,102235.00
2023-12-16T22:15:46.301Z,102244.00
2023-12-16T22:18:15.196Z,102231.00
2023-12-16T22:20:44.074Z,102234.00
2023-12-16T22:23:12.824Z,102236.00
2023-12-16T22:25:41.595Z,102238.00
2023-12-16T22:28:10.470Z,102233.00
2023-12-16T22:30:40.699Z,102244.00
2023-12-16T22:33:09.716Z,102240.00
2023-12-16T22:35:38.684Z,102235.00
2023-12-16T22:38:07.496Z,102230.00
2023-12-16T22:40:36.272Z,102226.00
2023-12-16T22:43:05.057Z,102226.00
2023-12-16T22:45:34.138Z,102237.00
2023-12-16T22:48:04.675Z,102238.00
2023-12-16T22:50:33.619Z,102243.00
2023-12-16T22:53:02.455Z,102252.00
2023-12-16T22:55:31.193Z,102251.00
2023-12-16T22:57:59.896Z,102249.00
2023-12-16T23:00:32.341Z,102254.00
2023-12-16T23:03:01.282Z,102255.00
2023-12-16T23:05:31.790Z,102266.00
2023-12-16T23:08:00.681Z,102265.00
2023-12-16T23:10:29.512Z,102247.00
2023-12-16T23:12:58.260Z,102238.00
2023-12-16T23:15:27.147Z,102231.00
2023-12-16T23:17:56.104Z,102222.00
2023-12-16T23:20:25.004Z,102230.00
2023-12-16T23:22:55.239Z,102230.00
2023-12-16T23:25:24.392Z,102234.00
2023-12-16T23:27:53.098Z,102231.00
2023-12-16T23:30:21.971Z,102236.00
2023-12-16T23:32:51.000Z,102235.00
2023-12-16T23:35:19.949Z,102246.00
2023-12-16T23:37:49.960Z,102249.00
2023-12-16T23:40:20.217Z,102253.00
2023-12-16T23:42:48.920Z,102256.00
2023-12-16T23:45:17.737Z,102266.00
2023-12-16T23:47:46.875Z,102281.00
2023-12-16T23:50:16.018Z,102274.00
2023-12-16T23:52:44.818Z,102282.00
2023-12-16T23:55:14.046Z,102264.00
2023-12-16T23:57:44.693Z,102264.00
